createdAt,value
2018-02-07T00:00:05.259Z,1.20
2018-02-07T00:02:32.752Z,1.10
2018-02-07T00:05:00.264Z,1.20
2018-02-07T00:07:27.806Z,1.10
2018-02-07T00:09:55.365Z,1.10
2018-02-07T00:12:23.767Z,1.00
2018-02-07T00:14:51.231Z,1.00
2018-02-07T00:17:18.809Z,1.00
2018-02-07T00:19:46.292Z,1.00
2018-02-07T00:22:14.757Z,1.00
2018-02-07T00:24:42.609Z,1.00
2018-02-07T00:27:12.577Z,0.90
2018-02-07T00:29:41.015Z,0.90
2018-02-07T00:32:08.475Z,0.90
2018-02-07T00:34:35.943Z,0.90
2018-02-07T00:37:03.403Z,0.90
2018-02-07T00:39:30.860Z,0.90
2018-02-07T00:41:58.315Z,0.90
2018-02-07T00:44:26.062Z,0.90
2018-02-07T00:46:53.504Z,0.90
2018-02-07T00:49:20.968Z,0.90
2018-02-07T00:51:48.455Z,0.90
2018-02-07T00:54:15.908Z,0.90
2018-02-07T00:56:43.347Z,1.00
2018-02-07T00:59:10.844Z,1.00
2018-02-07T01:01:38.290Z,1.00
2018-02-07T01:04:05.747Z,1.00
2018-02-07T01:06:33.220Z,0.90
2018-02-07T01:09:00.663Z,0.80
2018-02-07T01:11:28.146Z,0.80
2018-02-07T01:13:56.399Z,0.80
2018-02-07T01:16:23.874Z,0.80
2018-02-07T01:18:51.331Z,0.80
2018-02-07T01:21:18.773Z,0.90
2018-02-07T01:23:47.026Z,0.90
2018-02-07T01:26:14.504Z,0.90
2018-02-07T01:28:41.964Z,0.90
2018-02-07T01:31:09.433Z,0.80
2018-02-07T01:33:36.891Z,0.80
2018-02-07T01:36:04.322Z,0.80
2018-02-07T01:38:31.789Z,0.80
2018-02-07T01:40:59.239Z,0.80
2018-02-07T01:43:26.777Z,0.80
2018-02-07T01:45:54.216Z,0.70
2018-02-07T01:48:21.691Z,0.70
2018-02-07T01:50:49.145Z,0.70
2018-02-07T01:53:16.618Z,0.80
2018-02-07T01:55:44.067Z,0.80
2018-02-07T01:58:11.631Z,0.80
2018-02-07T02:00:39.086Z,0.80
2018-02-07T02:03:06.562Z,0.70
2018-02-07T02:05:34.022Z,0.70
2018-02-07T02:08:01.491Z,0.70
2018-02-07T02:10:28.940Z,0.70
2018-02-07T02:12:56.406Z,0.70
2018-02-07T02:15:23.858Z,0.70
2018-02-07T02:17:51.307Z,0.70
2018-02-07T02:20:18.786Z,0.70
2018-02-07T02:22:46.239Z,0.80
2018-02-07T02:25:13.719Z,0.70
2018-02-07T02:27:41.175Z,0.80
2018-02-07T02:30:08.660Z,0.80
2018-02-07T02:32:36.903Z,0.80
2018-02-07T02:35:04.477Z,0.80
2018-02-07T02:37:31.930Z,0.80
2018-02-07T02:39:59.391Z,0.80
2018-02-07T02:42:26.839Z,0.70
2018-02-07T02:44:54.319Z,0.70
2018-02-07T02:47:22.571Z,0.70
2018-02-07T02:49:50.042Z,0.70
2018-02-07T02:52:17.490Z,0.70
2018-02-07T02:54:44.959Z,0.70
2018-02-07T02:57:12.414Z,0.70
2018-02-07T02:59:39.875Z,0.70
2018-02-07T03:02:07.345Z,0.70
2018-02-07T03:04:35.575Z,0.70
2018-02-07T03:07:03.070Z,0.70
2018-02-07T03:09:30.507Z,0.70
2018-02-07T03:11:57.987Z,0.70
2018-02-07T03:14:25.459Z,0.70
2018-02-07T03:16:53.674Z,0.60
2018-02-07T03:19:21.130Z,0.60
2018-02-07T03:21:48.614Z,0.60
2018-02-07T03:24:16.092Z,0.60
2018-02-07T03:26:43.556Z,0.60
2018-02-07T03:29:11.773Z,0.60
2018-02-07T03:31:39.227Z,0.60
2018-02-07T03:34:06.687Z,0.60
2018-02-07T03:36:34.148Z,0.60
2018-02-07T03:39:01.601Z,0.60
2018-02-07T03:41:29.062Z,0.60
2018-02-07T03:43:56.529Z,0.60
2018-02-07T03:46:24.031Z,0.60
2018-02-07T03:48:51.487Z,0.50
2018-02-07T03:51:18.979Z,0.60
2018-02-07T03:53:47.230Z,0.60
2018-02-07T03:56:14.678Z,0.60
2018-02-07T03:58:42.135Z,0.60
2018-02-07T04:01:09.647Z,0.60
2018-02-07T04:03:37.087Z,0.70
2018-02-07T04:06:04.531Z,0.70
2018-02-07T04:08:32.771Z,0.70
2018-02-07T04:11:00.256Z,0.70
2018-02-07T04:13:27.734Z,0.70
2018-02-07T04:15:55.951Z,0.70
2018-02-07T04:18:23.426Z,0.70
2018-02-07T04:20:50.899Z,0.70
2018-02-07T04:23:18.356Z,0.70
2018-02-07T04:25:45.815Z,0.70
2018-02-07T04:28:13.271Z,0.70
2018-02-07T04:30:40.717Z,0.70
2018-02-07T04:33:08.195Z,0.60
2018-02-07T04:35:35.662Z,0.60
2018-02-07T04:38:03.881Z,0.60
2018-02-07T04:40:31.355Z,0.50
2018-02-07T04:42:58.843Z,0.60
2018-02-07T04:45:26.319Z,0.60
2018-02-07T04:47:54.578Z,0.60
2018-02-07T04:50:22.085Z,0.60
2018-02-07T04:52:49.567Z,0.60
2018-02-07T04:55:17.054Z,0.60
2018-02-07T04:57:44.519Z,0.60
2018-02-07T05:00:11.951Z,0.60
2018-02-07T05:02:39.424Z,0.60
2018-02-07T05:05:06.871Z,0.60
2018-02-07T05:07:34.347Z,0.60
2018-02-07T05:10:01.783Z,0.50
2018-02-07T05:12:29.362Z,0.50
2018-02-07T05:14:56.814Z,0.50
2018-02-07T05:17:24.356Z,0.40
2018-02-07T05:19:51.806Z,0.30
2018-02-07T05:22:19.279Z,0.30
2018-02-07T05:24:46.752Z,0.20
2018-02-07T05:27:14.213Z,0.10
2018-02-07T05:29:41.668Z,0.00
2018-02-07T05:32:09.143Z,0.00
2018-02-07T05:34:37.387Z,0.00
2018-02-07T05:37:04.860Z,0.00
2018-02-07T05:39:32.327Z,0.00
2018-02-07T05:42:00.595Z,-0.20
2018-02-07T05:44:28.139Z,-0.20
2018-02-07T05:46:55.610Z,-0.20
2018-02-07T05:49:23.066Z,-0.30
2018-02-07T05:51:50.527Z,-0.30
2018-02-07T05:54:17.990Z,-0.20
2018-02-07T05:56:45.447Z,-0.20
2018-02-07T05:59:12.916Z,-0.20
2018-02-07T06:01:41.152Z,-0.20
2018-02-07T06:04:08.625Z,-0.20
2018-02-07T06:06:36.082Z,-0.20
2018-02-07T06:09:03.543Z,-0.20
2018-02-07T06:11:31.149Z,-0.20
2018-02-07T06:13:58.606Z,-0.20
2018-02-07T06:16:26.078Z,-0.30
2018-02-07T06:18:53.551Z,-0.30
2018-02-07T06:21:21.109Z,-0.30
2018-02-07T06:23:48.573Z,-0.30
2018-02-07T06:26:16.044Z,-0.30
2018-02-07T06:28:43.616Z,-0.30
2018-02-07T06:31:11.060Z,-0.20
2018-02-07T06:33:38.531Z,-0.20
2018-02-07T06:36:06.005Z,-0.20
2018-02-07T06:38:33.535Z,-0.20
2018-02-07T06:41:01.024Z,-0.20
2018-02-07T06:43:28.476Z,-0.20
2018-02-07T06:45:56.023Z,-0.10
2018-02-07T06:48:23.496Z,-0.10
2018-02-07T06:50:50.954Z,-0.10
2018-02-07T06:53:18.441Z,-0.20
2018-02-07T06:55:46.687Z,-0.10
2018-02-07T06:58:14.145Z,-0.20
2018-02-07T07:00:41.798Z,-0.10
2018-02-07T07:03:09.255Z,-0.10
2018-02-07T07:05:36.739Z,-0.10
2018-02-07T07:08:04.986Z,-0.10
2018-02-07T07:10:32.460Z,-0.10
2018-02-07T07:12:59.919Z,-0.20
2018-02-07T07:15:27.384Z,-0.20
2018-02-07T07:17:54.861Z,-0.20
2018-02-07T07:20:23.095Z,-0.10
2018-02-07T07:22:50.546Z,-0.10
2018-02-07T07:25:18.048Z,-0.10
2018-02-07T07:27:46.280Z,-0.10
2018-02-07T07:30:13.763Z,-0.10
2018-02-07T07:32:41.217Z,-0.10
2018-02-07T07:35:08.679Z,-0.10
2018-02-07T07:37:36.301Z,-0.10
2018-02-07T07:40:03.756Z,-0.10
2018-02-07T07:42:31.231Z,-0.10
2018-02-07T07:44:58.687Z,-0.10
2018-02-07T07:47:26.172Z,0.00
2018-02-07T07:49:53.663Z,0.00
2018-02-07T07:52:21.907Z,0.00
2018-02-07T07:54:49.352Z,0.00
2018-02-07T07:57:16.830Z,0.00
2018-02-07T07:59:44.305Z,0.00
2018-02-07T08:02:12.523Z,0.00
2018-02-07T08:04:39.979Z,0.00
2018-02-07T08:07:07.436Z,0.10
2018-02-07T08:09:34.885Z,0.10
2018-02-07T08:12:02.372Z,0.20
2018-02-07T08:14:29.833Z,0.20
2018-02-07T08:16:57.289Z,0.20
2018-02-07T08:19:24.768Z,0.20
2018-02-07T08:21:52.243Z,0.30
2018-02-07T08:24:20.502Z,0.40
2018-02-07T08:26:47.963Z,0.40
2018-02-07T08:29:19.489Z,0.60
2018-02-07T08:31:47.791Z,0.70
2018-02-07T08:34:15.504Z,0.70
2018-02-07T08:36:42.964Z,0.80
2018-02-07T08:39:10.425Z,0.80
2018-02-07T08:41:37.884Z,0.80
2018-02-07T08:44:05.363Z,0.70
2018-02-07T08:46:32.844Z,0.60
2018-02-07T08:49:00.302Z,0.60
2018-02-07T08:51:27.763Z,0.80
2018-02-07T08:53:55.231Z,0.90
2018-02-07T08:56:24.218Z,0.80
2018-02-07T08:58:51.742Z,0.80
2018-02-07T09:01:19.192Z,1.10
2018-02-07T09:03:47.400Z,1.60
2018-02-07T09:06:14.868Z,2.30
2018-02-07T09:08:42.323Z,2.80
2018-02-07T09:11:09.780Z,3.10
2018-02-07T09:13:37.239Z,3.10
2018-02-07T09:16:04.892Z,3.00
2018-02-07T09:18:32.367Z,2.80
2018-02-07T09:20:59.803Z,2.80
2018-02-07T09:23:27.283Z,3.10
2018-02-07T09:25:54.787Z,3.10
2018-02-07T09:28:22.270Z,3.10
2018-02-07T09:30:50.036Z,3.30
2018-02-07T09:33:17.526Z,3.30
2018-02-07T09:35:45.762Z,3.10
2018-02-07T09:38:13.258Z,3.10
2018-02-07T09:40:41.487Z,3.30
2018-02-07T09:43:08.989Z,3.30
2018-02-07T09:45:36.525Z,3.20
2018-02-07T09:48:04.106Z,2.90
2018-02-07T09:50:31.550Z,2.70
2018-02-07T09:52:59.029Z,2.60
2018-02-07T09:55:26.578Z,2.40
2018-02-07T09:57:54.059Z,2.30
2018-02-07T10:00:21.528Z,2.30
2018-02-07T10:02:49.776Z,2.50
2018-02-07T10:05:17.232Z,2.50
2018-02-07T10:07:44.705Z,2.60
2018-02-07T10:10:12.347Z,2.80
2018-02-07T10:12:39.841Z,3.00
2018-02-07T10:15:07.282Z,3.40
2018-02-07T10:17:35.514Z,3.50
2018-02-07T10:20:02.962Z,3.60
2018-02-07T10:22:30.562Z,3.50
2018-02-07T10:24:58.032Z,3.60
2018-02-07T10:27:25.490Z,3.70
2018-02-07T10:29:52.948Z,3.80
2018-02-07T10:32:20.400Z,3.60
2018-02-07T10:34:47.851Z,3.50
2018-02-07T10:37:15.331Z,3.40
2018-02-07T10:39:43.559Z,4.00
2018-02-07T10:42:11.016Z,4.00
2018-02-07T10:44:38.529Z,3.90
2018-02-07T10:47:06.982Z,4.50
2018-02-07T10:49:34.462Z,4.50
2018-02-07T10:52:02.020Z,4.50
2018-02-07T10:54:29.470Z,4.50
2018-02-07T10:56:56.984Z,4.40
2018-02-07T10:59:24.455Z,4.10
2018-02-07T11:01:51.904Z,3.80
2018-02-07T11:04:19.391Z,3.50
2018-02-07T11:06:46.862Z,3.30
2018-02-07T11:09:14.299Z,3.20
2018-02-07T11:11:41.806Z,3.10
2018-02-07T11:14:10.045Z,2.80
2018-02-07T11:16:37.614Z,2.80
2018-02-07T11:21:27.811Z,2.70
2018-02-07T11:23:55.286Z,2.70
2018-02-07T11:26:22.833Z,2.70
2018-02-07T11:28:50.423Z,2.70
2018-02-07T11:31:18.636Z,2.70
2018-02-07T11:33:46.116Z,2.70
2018-02-07T11:36:13.571Z,2.70
2018-02-07T11:45:28.153Z,2.30
2018-02-07T11:47:55.714Z,2.30
2018-02-07T11:50:23.431Z,2.40
2018-02-07T11:52:51.460Z,2.60
2018-02-07T11:55:18.910Z,2.70
2018-02-07T11:57:46.397Z,2.80
2018-02-07T12:00:13.855Z,2.90
2018-02-07T12:02:41.344Z,3.00
2018-02-07T12:05:09.656Z,2.90
2018-02-07T12:07:37.132Z,2.90
2018-02-07T12:10:04.631Z,2.90
2018-02-07T12:12:32.136Z,2.90
2018-02-07T12:14:59.571Z,2.80
2018-02-07T12:17:27.049Z,2.80
2018-02-07T12:19:54.532Z,2.90
2018-02-07T12:22:22.272Z,2.90
2018-02-07T12:24:49.755Z,2.80
2018-02-07T12:27:17.266Z,2.80
2018-02-07T12:29:45.478Z,2.80
2018-02-07T12:32:12.923Z,2.80
2018-02-07T12:34:40.395Z,2.70
2018-02-07T12:37:08.177Z,2.80
2018-02-07T12:39:35.655Z,2.80
2018-02-07T12:42:03.111Z,2.80
2018-02-07T12:44:30.648Z,2.80
2018-02-07T12:46:58.148Z,2.80
2018-02-07T12:49:26.386Z,2.90
2018-02-07T12:51:53.844Z,2.90
2018-02-07T12:54:21.286Z,3.00
2018-02-07T12:56:48.751Z,3.00
2018-02-07T12:59:16.269Z,3.00
2018-02-07T13:01:44.500Z,3.10
2018-02-07T13:04:11.952Z,3.00
2018-02-07T13:06:39.406Z,3.10
2018-02-07T13:09:06.895Z,2.90
2018-02-07T13:11:34.352Z,2.80
2018-02-07T13:14:02.081Z,2.80
2018-02-07T13:16:29.536Z,2.90
2018-02-07T13:18:57.111Z,3.00
2018-02-07T13:21:24.562Z,3.20
2018-02-07T13:23:52.039Z,3.30
2018-02-07T13:26:19.552Z,3.20
2018-02-07T13:28:46.970Z,3.20
2018-02-07T13:31:14.450Z,3.10
2018-02-07T13:33:42.706Z,3.20
2018-02-07T13:42:52.499Z,3.20
2018-02-07T13:45:19.965Z,3.20
2018-02-07T13:47:48.199Z,3.30
2018-02-07T13:50:15.663Z,3.20
2018-02-07T13:52:43.131Z,3.30
2018-02-07T13:55:10.639Z,3.30
2018-02-07T13:57:38.864Z,3.20
2018-02-07T14:00:06.299Z,3.20
2018-02-07T14:02:33.766Z,3.20
2018-02-07T14:05:01.242Z,3.20
2018-02-07T14:07:28.698Z,3.10
2018-02-07T14:09:56.238Z,3.20
2018-02-07T14:12:23.766Z,3.20
2018-02-07T14:14:51.302Z,3.20
2018-02-07T14:17:18.759Z,3.30
2018-02-07T14:19:47.003Z,3.20
2018-02-07T14:22:14.443Z,3.20
2018-02-07T14:24:41.928Z,3.10
2018-02-07T14:27:09.391Z,3.10
2018-02-07T14:29:36.842Z,3.00
2018-02-07T14:32:04.305Z,3.00
2018-02-07T14:34:31.765Z,2.90
2018-02-07T14:36:59.256Z,2.90
2018-02-07T14:39:27.471Z,2.90
2018-02-07T14:41:55.167Z,2.90
2018-02-07T14:44:22.630Z,2.80
2018-02-07T14:46:50.086Z,2.60
2018-02-07T14:49:17.738Z,2.60
2018-02-07T14:51:45.516Z,2.60
2018-02-07T14:54:12.971Z,2.70
2018-02-07T14:56:40.431Z,2.70
2018-02-07T14:59:07.890Z,2.80
2018-02-07T15:01:35.350Z,2.70
2018-02-07T15:04:02.860Z,2.70
2018-02-07T15:06:30.336Z,2.80
2018-02-07T15:08:57.797Z,2.80
2018-02-07T15:11:25.243Z,2.60
2018-02-07T15:13:52.747Z,2.50
2018-02-07T15:16:20.203Z,2.60
2018-02-07T15:18:47.810Z,2.50
2018-02-07T15:21:15.264Z,2.50
2018-02-07T15:23:42.747Z,2.50
2018-02-07T15:26:10.951Z,2.50
2018-02-07T15:28:38.407Z,2.50
2018-02-07T15:31:05.883Z,2.40
2018-02-07T15:33:34.120Z,2.40
2018-02-07T15:36:01.574Z,2.40
2018-02-07T15:38:29.048Z,2.40
2018-02-07T15:40:56.539Z,2.40
2018-02-07T15:43:24.811Z,2.40
2018-02-07T15:45:53.042Z,2.30
2018-02-07T15:48:20.515Z,2.30
2018-02-07T15:50:47.993Z,2.30
2018-02-07T15:53:15.450Z,2.30
2018-02-07T15:55:42.961Z,2.30
2018-02-07T15:58:10.433Z,2.30
2018-02-07T16:00:37.887Z,2.30
2018-02-07T16:03:05.355Z,2.30
2018-02-07T16:05:32.822Z,2.20
2018-02-07T16:08:00.585Z,2.20
2018-02-07T16:10:28.035Z,2.10
2018-02-07T16:12:55.539Z,2.10
2018-02-07T16:15:23.752Z,2.00
2018-02-07T16:17:51.364Z,2.00
2018-02-07T16:20:18.832Z,2.00
2018-02-07T16:22:47.063Z,1.90
2018-02-07T16:25:14.526Z,1.80
2018-02-07T16:27:42.049Z,1.80
2018-02-07T16:30:09.518Z,1.80
2018-02-07T16:32:37.002Z,1.70
2018-02-07T16:35:04.458Z,1.70
2018-02-07T16:37:31.929Z,1.60
2018-02-07T16:39:59.434Z,1.50
2018-02-07T16:42:27.680Z,1.40
2018-02-07T16:44:55.227Z,1.40
2018-02-07T16:47:22.699Z,1.40
2018-02-07T16:49:50.143Z,1.40
2018-02-07T16:52:17.695Z,1.30
2018-02-07T16:54:45.159Z,1.20
2018-02-07T16:57:12.631Z,1.10
2018-02-07T16:59:40.247Z,1.20
2018-02-07T17:02:07.744Z,1.10
2018-02-07T17:04:35.448Z,1.10
2018-02-07T17:07:02.938Z,1.00
2018-02-07T17:09:30.641Z,1.00
2018-02-07T17:11:58.109Z,1.00
2018-02-07T17:14:26.342Z,1.00
2018-02-07T17:16:53.782Z,0.90
2018-02-07T17:19:21.289Z,0.90
2018-02-07T17:21:48.776Z,0.90
2018-02-07T17:24:16.983Z,0.80
2018-02-07T17:26:44.443Z,0.80
2018-02-07T17:29:11.917Z,0.80
2018-02-07T17:31:39.371Z,0.80
2018-02-07T17:34:06.857Z,0.80
2018-02-07T17:36:34.302Z,0.80
2018-02-07T17:39:01.755Z,0.70
2018-02-07T17:41:29.251Z,0.70
2018-02-07T17:43:57.481Z,0.60
2018-02-07T17:46:24.951Z,0.60
2018-02-07T17:48:52.435Z,0.60
2018-02-07T17:51:19.938Z,0.60
2018-02-07T17:53:47.367Z,0.60
2018-02-07T17:56:15.625Z,0.50
2018-02-07T17:58:43.092Z,0.50
2018-02-07T18:01:11.327Z,0.50
2018-02-07T18:03:38.903Z,0.50
2018-02-07T18:06:06.362Z,0.50
2018-02-07T18:08:33.827Z,0.50
2018-02-07T18:11:01.295Z,0.50
2018-02-07T18:13:28.847Z,0.40
2018-02-07T18:15:56.334Z,0.40
2018-02-07T18:18:24.547Z,0.30
2018-02-07T18:20:52.007Z,0.30
2018-02-07T18:23:19.471Z,0.30
2018-02-07T18:25:46.963Z,0.30
2018-02-07T18:28:14.431Z,0.30
2018-02-07T18:30:42.887Z,0.20
2018-02-07T18:33:10.345Z,0.20
2018-02-07T18:35:37.830Z,0.20
2018-02-07T18:38:06.063Z,0.30
2018-02-07T18:40:33.519Z,0.20
2018-02-07T18:43:01.012Z,0.20
2018-02-07T18:45:28.479Z,0.20
2018-02-07T18:47:55.931Z,0.10
2018-02-07T18:50:23.379Z,0.10
2018-02-07T18:52:50.839Z,0.10
2018-02-07T18:55:18.283Z,0.10
2018-02-07T18:57:45.759Z,0.10
2018-02-07T19:00:13.211Z,0.10
2018-02-07T19:02:40.758Z,0.10
2018-02-07T19:05:08.247Z,0.10
2018-02-07T19:07:36.513Z,0.00
2018-02-07T19:10:04.044Z,0.00
2018-02-07T19:12:31.535Z,0.00
2018-02-07T19:14:59.011Z,-0.10
2018-02-07T19:17:27.273Z,-0.10
2018-02-07T19:19:54.727Z,-0.10
2018-02-07T19:22:22.186Z,-0.10
2018-02-07T19:24:49.652Z,-0.20
2018-02-07T19:27:17.897Z,-0.20
2018-02-07T19:29:45.375Z,-0.20
2018-02-07T19:32:12.884Z,-0.20
2018-02-07T19:34:40.344Z,-0.30
2018-02-07T19:37:07.851Z,-0.30
2018-02-07T19:39:35.306Z,-0.30
2018-02-07T19:42:02.773Z,-0.40
2018-02-07T19:44:30.227Z,-0.40
2018-02-07T19:46:57.675Z,-0.40
2018-02-07T19:49:25.129Z,-0.40
2018-02-07T19:51:52.599Z,-0.40
2018-02-07T19:54:20.071Z,-0.40
2018-02-07T19:56:48.329Z,-0.50
2018-02-07T19:59:15.800Z,-0.50
2018-02-07T20:01:44.047Z,-0.50
2018-02-07T20:04:11.512Z,-0.50
2018-02-07T20:06:38.982Z,-0.50
2018-02-07T20:09:06.531Z,-0.50
2018-02-07T20:11:34.007Z,-0.60
2018-02-07T20:14:01.460Z,-0.60
2018-02-07T20:16:28.892Z,-0.60
2018-02-07T20:18:56.385Z,-0.60
2018-02-07T20:21:24.639Z,-0.60
2018-02-07T20:23:52.122Z,-0.60
2018-02-07T20:26:20.455Z,-0.60
2018-02-07T20:28:47.953Z,-0.70
2018-02-07T20:31:16.211Z,-0.70
2018-02-07T20:33:43.691Z,-0.70
2018-02-07T20:36:11.947Z,-0.80
2018-02-07T20:38:39.395Z,-0.80
2018-02-07T20:41:06.871Z,-0.80
2018-02-07T20:43:34.569Z,-0.80
2018-02-07T20:46:02.058Z,-0.80
2018-02-07T20:48:29.647Z,-0.90
2018-02-07T20:50:57.099Z,-0.90
2018-02-07T20:53:24.573Z,-0.90
2018-02-07T20:55:52.054Z,-0.90
2018-02-07T20:58:20.276Z,-1.00
2018-02-07T21:00:47.733Z,-1.00
2018-02-07T21:03:16.235Z,-0.90
2018-02-07T21:05:43.773Z,-1.00
2018-02-07T21:08:11.265Z,-1.00
2018-02-07T21:10:38.734Z,-1.00
2018-02-07T21:13:06.959Z,-1.00
2018-02-07T21:15:34.524Z,-1.00
2018-02-07T21:18:01.975Z,-1.00
2018-02-07T21:20:29.451Z,-1.00
2018-02-07T21:22:56.996Z,-1.00
2018-02-07T21:25:24.446Z,-1.00
2018-02-07T21:27:51.914Z,-1.00
2018-02-07T21:30:19.379Z,-1.00
2018-02-07T21:32:46.830Z,-1.00
2018-02-07T21:35:14.315Z,-1.00
2018-02-07T21:37:41.786Z,-1.00
2018-02-07T21:40:09.255Z,-1.10
2018-02-07T21:42:37.495Z,-1.10
2018-02-07T21:45:04.989Z,-1.10
2018-02-07T21:47:32.410Z,-1.10
2018-02-07T21:49:59.907Z,-1.10
2018-02-07T21:52:28.135Z,-1.20
2018-02-07T21:54:55.603Z,-1.20
2018-02-07T21:57:23.075Z,-1.20
2018-02-07T21:59:50.535Z,-1.20
2018-02-07T22:02:17.999Z,-1.30
2018-02-07T22:04:45.490Z,-1.30
2018-02-07T22:07:13.722Z,-1.30
2018-02-07T22:09:41.299Z,-1.30
2018-02-07T22:12:08.759Z,-1.30
2018-02-07T22:14:36.214Z,-1.30
2018-02-07T22:17:03.727Z,-1.30
2018-02-07T22:19:31.192Z,-1.30
2018-02-07T22:21:58.682Z,-1.40
2018-02-07T22:24:26.151Z,-1.40
2018-02-07T22:26:53.618Z,-1.40
2018-02-07T22:29:21.100Z,-1.40
2018-02-07T22:31:49.335Z,-1.40
2018-02-07T22:34:16.822Z,-1.40
2018-02-07T22:36:45.055Z,-1.40
2018-02-07T22:39:12.529Z,-1.40
2018-02-07T22:41:40.066Z,-1.40
2018-02-07T22:44:07.563Z,-1.40
2018-02-07T22:46:35.069Z,-1.50
2018-02-07T22:49:02.540Z,-1.50
2018-02-07T22:51:30.021Z,-1.50
2018-02-07T22:53:57.474Z,-1.50
2018-02-07T22:56:24.946Z,-1.50
2018-02-07T22:58:52.403Z,-1.60
2018-02-07T23:01:19.890Z,-1.60
2018-02-07T23:03:48.151Z,-1.60
2018-02-07T23:06:15.655Z,-1.60
2018-02-07T23:08:43.343Z,-1.60
2018-02-07T23:11:10.810Z,-1.70
2018-02-07T23:13:38.279Z,-1.70
2018-02-07T23:16:05.745Z,-1.70
2018-02-07T23:18:33.206Z,-1.80
2018-02-07T23:21:01.442Z,-1.80
2018-02-07T23:23:28.923Z,-1.80
2018-02-07T23:25:56.391Z,-1.80
2018-02-07T23:28:23.852Z,-1.80
2018-02-07T23:30:51.310Z,-1.80
2018-02-07T23:33:18.771Z,-1.80
2018-02-07T23:35:46.236Z,-1.90
2018-02-07T23:38:13.742Z,-1.90
2018-02-07T23:40:41.207Z,-1.90
2018-02-07T23:43:08.671Z,-1.90
2018-02-07T23:45:36.143Z,-1.90
2018-02-07T23:48:03.618Z,-1.90
2018-02-07T23:50:31.083Z,-1.90
2018-02-07T23:52:58.619Z,-1.90
2018-02-07T23:55:26.089Z,-1.90
2018-02-07T23:57:53.602Z,-1.90
